createdAt,value
2019-03-01T00:03:21.624Z,68.30
2019-03-01T00:08:29.425Z,64.04
2019-03-01T00:13:37.038Z,62.03
2019-03-01T00:18:44.638Z,66.61
2019-03-01T00:23:52.253Z,110.99
2019-03-01T00:28:59.975Z,59.40
2019-03-01T00:34:07.562Z,62.65
2019-03-01T00:39:15.186Z,65.18
2019-03-01T00:44:22.936Z,60.46
2019-03-01T00:49:30.686Z,60.81
2019-03-01T00:54:38.306Z,70.38
2019-03-01T00:59:46.023Z,68.47
2019-03-01T01:04:53.716Z,66.93
2019-03-01T01:10:01.333Z,77.50
2019-03-01T01:15:09.028Z,68.10
2019-03-01T01:20:16.655Z,62.51
2019-03-01T01:25:24.318Z,63.38
2019-03-01T01:30:32.082Z,63.97
2019-03-01T01:35:39.824Z,58.22
2019-03-01T01:40:47.526Z,65.44
2019-03-01T01:45:57.718Z,73.23
2019-03-01T01:50:55.469Z,60.19
2019-03-01T01:56:03.126Z,62.16
2019-03-01T02:01:10.771Z,62.09
2019-03-01T02:06:18.402Z,64.26
2019-03-01T02:11:26.106Z,59.13
2019-03-01T02:16:33.837Z,61.15
2019-03-01T02:21:41.606Z,58.98
2019-03-01T02:26:49.194Z,72.99
2019-03-01T02:31:56.958Z,67.65
2019-03-01T02:37:04.543Z,65.65
2019-03-01T02:42:12.283Z,64.43
2019-03-01T02:47:19.913Z,69.71
2019-03-01T02:52:27.657Z,68.76
2019-03-01T02:57:35.598Z,66.09
2019-03-01T03:02:43.382Z,66.65
2019-03-01T03:07:50.987Z,71.22
2019-03-01T03:12:58.809Z,62.45
2019-03-01T03:18:06.379Z,66.01
2019-03-01T03:23:14.085Z,69.34
2019-03-01T03:28:21.837Z,68.83
2019-03-01T03:33:29.975Z,64.23
2019-03-01T03:38:37.683Z,63.84
2019-03-01T03:43:45.335Z,65.30
2019-03-01T03:48:52.944Z,67.29
2019-03-01T03:54:00.691Z,73.04
2019-03-01T03:59:08.302Z,77.19
2019-03-01T04:04:15.924Z,80.13
2019-03-01T04:09:23.537Z,77.67
2019-03-01T04:14:31.409Z,83.63
2019-03-01T04:19:39.074Z,76.18
2019-03-01T04:24:46.649Z,86.33
2019-03-01T04:29:54.318Z,83.97
2019-03-01T04:35:01.975Z,81.10
2019-03-01T04:40:09.690Z,82.64
2019-03-01T04:45:17.395Z,87.18
2019-03-01T04:50:25.207Z,88.34
2019-03-01T04:55:32.906Z,78.04
2019-03-01T05:00:40.633Z,84.90
2019-03-01T05:05:48.307Z,82.95
2019-03-01T05:10:55.952Z,79.78
2019-03-01T05:16:03.842Z,84.85
2019-03-01T05:21:11.470Z,75.15
2019-03-01T05:26:19.143Z,69.14
2019-03-01T05:31:26.811Z,58.59
2019-03-01T05:36:34.410Z,46.18
2019-03-01T05:41:42.096Z,39.00
2019-03-01T05:46:49.706Z,32.42
2019-03-01T05:51:57.346Z,31.15
2019-03-01T05:57:04.994Z,24.68
2019-03-01T06:02:12.688Z,24.11
2019-03-01T06:07:20.314Z,24.12
2019-03-01T06:12:28.152Z,21.76
2019-03-01T06:17:35.901Z,21.17
2019-03-01T06:22:43.566Z,19.90
2019-03-01T06:27:51.202Z,14.52
2019-03-01T06:32:58.992Z,11.22
2019-03-01T06:38:06.897Z,12.81
2019-03-01T06:43:14.569Z,13.14
2019-03-01T06:48:22.293Z,12.22
2019-03-01T06:53:30.030Z,16.39
2019-03-01T06:58:37.697Z,20.97
2019-03-01T07:03:45.477Z,19.46
2019-03-01T07:08:53.073Z,18.01
2019-03-01T07:14:00.779Z,14.34
2019-03-01T07:19:08.408Z,15.08
2019-03-01T07:24:16.148Z,12.12
2019-03-01T07:29:23.873Z,13.56
2019-03-01T07:34:31.624Z,14.41
2019-03-01T07:39:39.337Z,13.37
2019-03-01T07:44:47.029Z,9.98
2019-03-01T07:49:54.682Z,10.84
2019-03-01T07:55:02.376Z,10.22
2019-03-01T08:00:10.853Z,9.72
2019-03-01T08:05:17.311Z,8.75
2019-03-01T08:10:24.956Z,8.71
2019-03-01T08:15:32.750Z,7.56
2019-03-01T08:20:40.854Z,8.80
2019-03-01T08:25:48.585Z,8.79
2019-03-01T08:30:57.146Z,6.95
2019-03-01T08:36:05.842Z,11.78
2019-03-01T08:41:12.118Z,7.47
2019-03-01T08:46:19.874Z,8.17
2019-03-01T08:51:30.020Z,7.85
2019-03-01T08:56:28.610Z,7.54
2019-03-01T09:01:36.278Z,7.39
2019-03-01T09:06:44.283Z,8.06
2019-03-01T09:11:51.921Z,7.17
2019-03-01T09:17:00.612Z,7.20
2019-03-01T09:22:07.090Z,6.80
2019-03-01T09:27:15.027Z,7.45
2019-03-01T09:32:22.790Z,6.23
2019-03-01T09:37:32.500Z,6.89
2019-03-01T09:42:37.726Z,6.42
2019-03-01T09:47:45.861Z,4.88
2019-03-01T09:52:55.592Z,6.80
2019-03-01T09:58:01.190Z,5.11
2019-03-01T10:03:08.966Z,3.68
2019-03-01T10:08:16.839Z,4.24
2019-03-01T10:13:24.586Z,4.16
2019-03-01T10:18:32.316Z,4.86
2019-03-01T10:23:40.131Z,5.99
2019-03-01T10:28:47.912Z,5.37
2019-03-01T10:33:55.519Z,6.30
2019-03-01T10:39:03.388Z,4.60
2019-03-01T10:44:10.949Z,5.15
2019-03-01T10:49:18.790Z,6.11
2019-03-01T10:54:26.557Z,4.50
2019-03-01T10:59:34.233Z,6.41
2019-03-01T11:04:42.166Z,4.92
2019-03-01T11:09:49.850Z,5.23
2019-03-01T11:14:57.622Z,7.35
2019-03-01T11:20:06.426Z,5.33
2019-03-01T11:25:14.157Z,6.83
2019-03-01T11:30:21.844Z,4.94
2019-03-01T11:35:29.465Z,4.20
2019-03-01T11:40:37.107Z,5.07
2019-03-01T11:45:44.775Z,4.59
2019-03-01T11:50:52.465Z,6.74
2019-03-01T11:56:00.200Z,3.61
2019-03-01T12:01:16.670Z,5.21
2019-03-01T12:06:16.034Z,4.86
2019-03-01T12:11:23.930Z,5.65
2019-03-01T12:16:31.611Z,6.00
2019-03-01T12:21:39.292Z,5.29
2019-03-01T12:26:46.907Z,5.35
2019-03-01T12:31:54.688Z,6.37
2019-03-01T12:37:02.405Z,5.36
2019-03-01T12:42:10.102Z,5.51
2019-03-01T12:47:17.868Z,4.52
2019-03-01T12:52:25.563Z,5.40
2019-03-01T12:57:33.232Z,7.49
2019-03-01T13:02:40.976Z,6.30
2019-03-01T13:07:48.606Z,6.13
2019-03-01T13:12:58.740Z,4.87
2019-03-01T13:18:03.775Z,5.08
2019-03-01T13:23:11.341Z,4.97
2019-03-01T13:28:18.965Z,5.68
2019-03-01T13:33:26.661Z,5.45
2019-03-01T13:38:35.354Z,5.83
2019-03-01T13:43:42.445Z,4.75
2019-03-01T13:48:50.927Z,6.09
2019-03-01T13:53:57.453Z,5.25
2019-03-01T13:59:05.335Z,6.50
2019-03-01T14:04:12.974Z,9.73
2019-03-01T14:09:23.400Z,5.28
2019-03-01T14:14:28.105Z,7.63
2019-03-01T14:19:34.970Z,7.58
2019-03-01T14:24:42.746Z,5.83
2019-03-01T14:29:53.428Z,7.45
2019-03-01T14:34:57.807Z,4.99
2019-03-01T14:40:05.546Z,6.75
2019-03-01T14:45:14.278Z,7.19
2019-03-01T14:50:21.973Z,5.62
2019-03-01T14:55:29.770Z,5.85
2019-03-01T15:00:37.406Z,8.36
2019-03-01T15:05:45.237Z,6.18
2019-03-01T15:10:54.830Z,5.60
2019-03-01T15:16:04.656Z,6.04
2019-03-01T15:21:09.811Z,8.20
2019-03-01T15:26:17.484Z,6.94
2019-03-01T15:31:25.210Z,10.04
2019-03-01T15:36:32.764Z,9.32
2019-03-01T15:41:42.272Z,10.80
2019-03-01T15:46:49.908Z,8.44
2019-03-01T15:51:55.802Z,9.22
2019-03-01T15:57:03.433Z,9.94
2019-03-01T16:02:11.981Z,6.65
2019-03-01T16:07:20.614Z,8.35
2019-03-01T16:12:32.339Z,8.64
2019-03-01T16:17:36.795Z,8.30
2019-03-01T16:22:44.690Z,11.48
2019-03-01T16:27:54.347Z,8.56
2019-03-01T16:32:59.531Z,10.69
2019-03-01T16:38:07.137Z,10.64
2019-03-01T16:43:14.957Z,12.43
2019-03-01T16:48:22.675Z,8.49
2019-03-01T16:53:31.337Z,10.14
2019-03-01T16:58:39.037Z,10.65
2019-03-01T17:03:49.599Z,7.74
2019-03-01T17:08:54.079Z,8.35
2019-03-01T17:14:03.392Z,10.46
2019-03-01T17:19:12.163Z,8.24
2019-03-01T17:24:19.878Z,8.22
2019-03-01T17:29:27.611Z,9.40
2019-03-01T17:34:35.376Z,9.44
2019-03-01T17:39:43.144Z,7.90
2019-03-01T17:44:50.780Z,7.85
2019-03-01T17:49:58.509Z,9.23
2019-03-01T17:55:07.134Z,7.13
2019-03-01T18:00:14.865Z,6.65
2019-03-01T18:05:22.619Z,7.44
2019-03-01T18:10:32.146Z,7.97
2019-03-01T18:15:39.674Z,7.41
2019-03-01T18:20:47.361Z,8.57
2019-03-01T18:25:55.107Z,6.76
2019-03-01T18:31:02.858Z,9.17
2019-03-01T18:36:10.567Z,8.13
2019-03-01T18:41:20.093Z,8.23
2019-03-01T18:46:27.806Z,9.48
2019-03-01T18:51:35.526Z,6.51
2019-03-01T18:56:45.221Z,8.57
2019-03-01T19:01:55.066Z,10.02
2019-03-01T19:07:03.840Z,7.49
2019-03-01T19:12:12.613Z,7.96
2019-03-01T19:17:19.407Z,7.09
2019-03-01T19:22:28.351Z,9.51
2019-03-01T19:27:35.096Z,8.96
2019-03-01T19:32:43.380Z,7.60
2019-03-01T19:37:52.524Z,8.00
2019-03-01T19:43:01.295Z,8.35
2019-03-01T19:48:08.927Z,13.46
2019-03-01T19:53:21.660Z,7.00
2019-03-01T19:58:25.638Z,8.01
2019-03-01T20:03:33.948Z,8.69
2019-03-01T20:08:42.129Z,7.91
2019-03-01T20:13:50.557Z,7.56
2019-03-01T20:19:02.281Z,7.74
2019-03-01T20:24:06.723Z,6.75
2019-03-01T20:29:03.796Z,9.08
2019-03-01T20:34:11.622Z,6.42
2019-03-01T20:39:20.875Z,9.31
2019-03-01T20:44:28.788Z,7.09
2019-03-01T20:49:39.384Z,7.29
2019-03-01T20:54:44.780Z,8.98
2019-03-01T20:59:53.407Z,6.13
2019-03-01T21:05:03.686Z,5.70
2019-03-01T21:10:01.385Z,7.25
2019-03-01T21:15:09.431Z,7.60
2019-03-01T21:20:19.610Z,5.29
2019-03-01T21:25:26.434Z,6.42
2019-03-01T21:30:34.249Z,7.19
2019-03-01T21:35:41.950Z,7.24
2019-03-01T21:40:51.697Z,6.50
2019-03-01T21:45:59.842Z,8.64
2019-03-01T21:51:07.341Z,5.74
2019-03-01T21:56:14.999Z,6.27
2019-03-01T22:01:22.638Z,9.14
2019-03-01T22:06:30.311Z,5.71
2019-03-01T22:11:38.077Z,7.67
2019-03-01T22:16:45.817Z,5.46
2019-03-01T22:21:54.645Z,6.74
2019-03-01T22:27:01.695Z,8.40
2019-03-01T22:32:10.567Z,9.70
2019-03-01T22:37:16.641Z,8.11
2019-03-01T22:42:24.229Z,7.06
2019-03-01T22:47:32.359Z,6.56
2019-03-01T22:52:39.357Z,5.84
2019-03-01T22:57:48.350Z,8.03
2019-03-01T23:02:56.036Z,6.46
2019-03-01T23:08:03.798Z,6.24
2019-03-01T23:13:11.427Z,7.90
2019-03-01T23:18:19.266Z,4.20
2019-03-01T23:23:26.873Z,5.95
2019-03-01T23:28:34.597Z,15.16
2019-03-01T23:33:42.321Z,5.62
2019-03-01T23:38:50.275Z,6.46
2019-03-01T23:43:57.206Z,6.84
2019-03-01T23:49:06.487Z,5.85
2019-03-01T23:54:12.417Z,4.68
2019-03-01T23:59:20.220Z,4.71
